CEB593 RPVM-RPMD
Flight info
| Callsign | CEB593 |
|---|---|
| Flight time | 0h 46m |
| Altitude | 29000 |
| Route | BAMPA2A BAMPA W14 BN W9 RIMAR RIMAR2R |
| Aircraft | A21N/M-SDE3FGHIRWY/LB1 |
Departure
| Time | 2026-04-30 10:34 |
|---|---|
| Airport | Mactan Cebu International Airport (RPVM) |
Arrival
| Time | 2026-04-30 11:20 |
|---|---|
| Airport | Francisco Bangoy International Airport (RPMD) |
| Time | Latitude | Longitude | Altitude | Speed | Heading |
|---|---|---|---|---|---|
| 2026-04-30 10:08 | 10.31551 | 123.97975 | 36 ft | 0 kts | 314° |
| 2026-04-30 10:22 | 10.31543 | 123.97984 | 36 ft | 2 kts | 314° |
| 2026-04-30 10:22 | 10.31532 | 123.97996 | 36 ft | 2 kts | 314° |
| 2026-04-30 10:22 | 10.31522 | 123.98006 | 36 ft | 2 kts | 314° |
| 2026-04-30 10:22 | 10.31514 | 123.98014 | 36 ft | 0 kts | 314° |
| 2026-04-30 10:23 | 10.31506 | 123.98025 | 36 ft | 2 kts | 282° |
| 2026-04-30 10:23 | 10.31507 | 123.98041 | 36 ft | 2 kts | 250° |
| 2026-04-30 10:23 | 10.31512 | 123.98051 | 36 ft | 0 kts | 227° |
| 2026-04-30 10:23 | 10.31517 | 123.98055 | 36 ft | 0 kts | 224° |
| 2026-04-30 10:24 | 10.31517 | 123.98056 | 36 ft | 0 kts | 224° |
| 2026-04-30 10:26 | 10.31515 | 123.98054 | 36 ft | 0 kts | 224° |
| 2026-04-30 10:26 | 10.31505 | 123.98044 | 36 ft | 4 kts | 225° |
| 2026-04-30 10:27 | 10.31472 | 123.98011 | 36 ft | 8 kts | 224° |
| 2026-04-30 10:27 | 10.31420 | 123.97958 | 36 ft | 11 kts | 227° |
| 2026-04-30 10:27 | 10.31357 | 123.97906 | 36 ft | 11 kts | 194° |
| 2026-04-30 10:27 | 10.31286 | 123.97936 | 36 ft | 11 kts | 135° |
| 2026-04-30 10:28 | 10.31245 | 123.97975 | 36 ft | 11 kts | 147° |
| 2026-04-30 10:28 | 10.31156 | 123.97934 | 36 ft | 11 kts | 223° |
| 2026-04-30 10:28 | 10.31094 | 123.97874 | 36 ft | 12 kts | 225° |
| 2026-04-30 10:28 | 10.31031 | 123.97810 | 36 ft | 13 kts | 225° |
| 2026-04-30 10:29 | 10.30966 | 123.97743 | 36 ft | 13 kts | 225° |
| 2026-04-30 10:29 | 10.30900 | 123.97675 | 36 ft | 13 kts | 225° |
| 2026-04-30 10:29 | 10.30831 | 123.97606 | 36 ft | 14 kts | 225° |
| 2026-04-30 10:29 | 10.30761 | 123.97535 | 36 ft | 14 kts | 225° |
| 2026-04-30 10:30 | 10.30689 | 123.97463 | 36 ft | 14 kts | 224° |
| 2026-04-30 10:30 | 10.30615 | 123.97390 | 36 ft | 14 kts | 224° |
| 2026-04-30 10:30 | 10.30541 | 123.97317 | 36 ft | 14 kts | 224° |
| 2026-04-30 10:30 | 10.30469 | 123.97244 | 36 ft | 14 kts | 225° |
| 2026-04-30 10:31 | 10.30395 | 123.97174 | 36 ft | 12 kts | 210° |
| 2026-04-30 10:31 | 10.30375 | 123.97167 | 36 ft | 0 kts | 192° |
| 2026-04-30 10:31 | 10.30363 | 123.97165 | 36 ft | 4 kts | 186° |
| 2026-04-30 10:32 | 10.30320 | 123.97185 | 36 ft | 9 kts | 139° |
| 2026-04-30 10:32 | 10.30310 | 123.97221 | 36 ft | 3 kts | 70° |
| 2026-04-30 10:32 | 10.30325 | 123.97240 | 36 ft | 0 kts | 45° |
| 2026-04-30 10:33 | 10.30331 | 123.97247 | 36 ft | 12 kts | 45° |
| 2026-04-30 10:33 | 10.30581 | 123.97497 | 36 ft | 86 kts | 45° |
| 2026-04-30 10:33 | 10.31165 | 123.98083 | 36 ft | 146 kts | 45° |
| 2026-04-30 10:33 | 10.31994 | 123.98910 | 191 ft | 179 kts | 45° |
| 2026-04-30 10:34 | 10.32887 | 123.99780 | 837 ft | 178 kts | 45° |
| 2026-04-30 10:34 | 10.33746 | 124.00650 | 1624 ft | 173 kts | 47° |
| 2026-04-30 10:34 | 10.34551 | 124.01561 | 2198 ft | 180 kts | 59° |
| 2026-04-30 10:34 | 10.34740 | 124.02842 | 2578 ft | 201 kts | 102° |
| 2026-04-30 10:35 | 10.34152 | 124.04186 | 2945 ft | 215 kts | 112° |
| 2026-04-30 10:35 | 10.33513 | 124.05632 | 3200 ft | 236 kts | 110° |
| 2026-04-30 10:35 | 10.32854 | 124.07239 | 3604 ft | 253 kts | 109° |
| 2026-04-30 10:35 | 10.32190 | 124.08902 | 4233 ft | 259 kts | 109° |
| 2026-04-30 10:36 | 10.31520 | 124.10599 | 4987 ft | 261 kts | 109° |
| 2026-04-30 10:36 | 10.30849 | 124.12312 | 5732 ft | 262 kts | 109° |
| 2026-04-30 10:36 | 10.30187 | 124.14005 | 6461 ft | 263 kts | 109° |
| 2026-04-30 10:36 | 10.29517 | 124.15724 | 7165 ft | 265 kts | 109° |
| 2026-04-30 10:37 | 10.28834 | 124.17482 | 7807 ft | 268 kts | 109° |
| 2026-04-30 10:37 | 10.28155 | 124.19232 | 8422 ft | 271 kts | 109° |
| 2026-04-30 10:37 | 10.27461 | 124.21020 | 9050 ft | 274 kts | 109° |
| 2026-04-30 10:37 | 10.26759 | 124.22826 | 9672 ft | 276 kts | 109° |
| 2026-04-30 10:38 | 10.26050 | 124.24653 | 10250 ft | 279 kts | 109° |
| 2026-04-30 10:38 | 10.25326 | 124.26518 | 10576 ft | 292 kts | 109° |
| 2026-04-30 10:38 | 10.24565 | 124.28481 | 10830 ft | 306 kts | 109° |
| 2026-04-30 10:38 | 10.23769 | 124.30531 | 11103 ft | 319 kts | 110° |
| 2026-04-30 10:39 | 10.22896 | 124.32606 | 11592 ft | 323 kts | 113° |
| 2026-04-30 10:39 | 10.21849 | 124.34648 | 12134 ft | 327 kts | 117° |
| 2026-04-30 10:39 | 10.20653 | 124.36613 | 12631 ft | 330 kts | 120° |
| 2026-04-30 10:39 | 10.19400 | 124.38579 | 13131 ft | 333 kts | 120° |
| 2026-04-30 10:40 | 10.18143 | 124.40544 | 13594 ft | 336 kts | 120° |
| 2026-04-30 10:40 | 10.16858 | 124.42551 | 14074 ft | 339 kts | 120° |
| 2026-04-30 10:40 | 10.15575 | 124.44556 | 14532 ft | 342 kts | 120° |
| 2026-04-30 10:40 | 10.14276 | 124.46587 | 14975 ft | 345 kts | 120° |
| 2026-04-30 10:41 | 10.12961 | 124.48644 | 15411 ft | 347 kts | 121° |
| 2026-04-30 10:41 | 10.11648 | 124.50700 | 15830 ft | 350 kts | 120° |
| 2026-04-30 10:41 | 10.10328 | 124.52764 | 16238 ft | 352 kts | 120° |
| 2026-04-30 10:41 | 10.08984 | 124.54867 | 16632 ft | 355 kts | 120° |
| 2026-04-30 10:42 | 10.08088 | 124.56269 | 16895 ft | 357 kts | 120° |
| 2026-04-30 10:42 | 10.06743 | 124.58375 | 17280 ft | 359 kts | 120° |
| 2026-04-30 10:42 | 10.04924 | 124.61222 | 17773 ft | 362 kts | 121° |
| 2026-04-30 10:42 | 10.03539 | 124.63390 | 18160 ft | 364 kts | 121° |
| 2026-04-30 10:43 | 10.02165 | 124.65540 | 18528 ft | 366 kts | 121° |
| 2026-04-30 10:43 | 10.00782 | 124.67702 | 18916 ft | 368 kts | 121° |
| 2026-04-30 10:43 | 9.99381 | 124.69892 | 19306 ft | 369 kts | 121° |
| 2026-04-30 10:43 | 9.97975 | 124.72091 | 19681 ft | 371 kts | 121° |
| 2026-04-30 10:44 | 9.96571 | 124.74284 | 20036 ft | 372 kts | 121° |
| 2026-04-30 10:44 | 9.95157 | 124.76492 | 20376 ft | 374 kts | 121° |
| 2026-04-30 10:44 | 9.93747 | 124.78690 | 20719 ft | 376 kts | 121° |
| 2026-04-30 10:44 | 9.92313 | 124.80925 | 21059 ft | 378 kts | 121° |
| 2026-04-30 10:45 | 9.90886 | 124.83151 | 21396 ft | 379 kts | 121° |
| 2026-04-30 10:45 | 9.89920 | 124.84656 | 21625 ft | 380 kts | 121° |
| 2026-04-30 10:45 | 9.87998 | 124.87656 | 22056 ft | 382 kts | 121° |
| 2026-04-30 10:45 | 9.86540 | 124.89931 | 22374 ft | 383 kts | 121° |
| 2026-04-30 10:46 | 9.85096 | 124.92186 | 22663 ft | 385 kts | 121° |
| 2026-04-30 10:46 | 9.83626 | 124.94481 | 22935 ft | 388 kts | 121° |
| 2026-04-30 10:46 | 9.82150 | 124.96783 | 23204 ft | 390 kts | 121° |
| 2026-04-30 10:46 | 9.80673 | 124.99087 | 23466 ft | 393 kts | 121° |
| 2026-04-30 10:47 | 9.79181 | 125.01407 | 23748 ft | 395 kts | 122° |
| 2026-04-30 10:47 | 9.77445 | 125.03596 | 24008 ft | 399 kts | 132° |
| 2026-04-30 10:47 | 9.75341 | 125.05445 | 24289 ft | 403 kts | 142° |
| 2026-04-30 10:47 | 9.72947 | 125.06928 | 24581 ft | 406 kts | 149° |
| 2026-04-30 10:48 | 9.70433 | 125.08282 | 24852 ft | 408 kts | 150° |
| 2026-04-30 10:48 | 9.67928 | 125.09606 | 25108 ft | 410 kts | 150° |
| 2026-04-30 10:48 | 9.65368 | 125.10957 | 25379 ft | 412 kts | 150° |
| 2026-04-30 10:48 | 9.62829 | 125.12303 | 25653 ft | 413 kts | 150° |
| 2026-04-30 10:49 | 9.60276 | 125.13661 | 25905 ft | 415 kts | 150° |
| 2026-04-30 10:49 | 9.57710 | 125.15031 | 26154 ft | 417 kts | 150° |
| 2026-04-30 10:49 | 9.55162 | 125.16389 | 26400 ft | 418 kts | 150° |
| 2026-04-30 10:49 | 9.52571 | 125.17773 | 26649 ft | 420 kts | 150° |
| 2026-04-30 10:50 | 9.49959 | 125.19167 | 26898 ft | 421 kts | 150° |
| 2026-04-30 10:50 | 9.47376 | 125.20546 | 27140 ft | 422 kts | 150° |
| 2026-04-30 10:50 | 9.44764 | 125.21941 | 27369 ft | 424 kts | 150° |
| 2026-04-30 10:50 | 9.42158 | 125.23332 | 27595 ft | 426 kts | 150° |
| 2026-04-30 10:51 | 9.39507 | 125.24746 | 27827 ft | 427 kts | 150° |
| 2026-04-30 10:51 | 9.36876 | 125.26150 | 28060 ft | 429 kts | 150° |
| 2026-04-30 10:51 | 9.34222 | 125.27567 | 28298 ft | 430 kts | 150° |
| 2026-04-30 10:51 | 9.31572 | 125.28980 | 28530 ft | 431 kts | 150° |
| 2026-04-30 10:52 | 9.28915 | 125.30398 | 28788 ft | 432 kts | 150° |
| 2026-04-30 10:52 | 9.26239 | 125.31825 | 28870 ft | 433 kts | 150° |
| 2026-04-30 10:52 | 9.20940 | 125.34652 | 28878 ft | 432 kts | 150° |
| 2026-04-30 10:53 | 9.15594 | 125.37502 | 28885 ft | 432 kts | 150° |
| 2026-04-30 10:53 | 9.10274 | 125.40340 | 28893 ft | 431 kts | 150° |
| 2026-04-30 10:54 | 9.04969 | 125.43169 | 28888 ft | 431 kts | 150° |
| 2026-04-30 10:54 | 8.99649 | 125.45987 | 28894 ft | 432 kts | 152° |
| 2026-04-30 10:55 | 8.93963 | 125.48122 | 28898 ft | 435 kts | 163° |
| 2026-04-30 10:55 | 8.87941 | 125.49134 | 28907 ft | 437 kts | 171° |
| 2026-04-30 10:56 | 8.81909 | 125.49742 | 28776 ft | 432 kts | 172° |
| 2026-04-30 10:56 | 8.79915 | 125.49937 | 28490 ft | 429 kts | 172° |
| 2026-04-30 10:56 | 8.75954 | 125.50331 | 27682 ft | 427 kts | 172° |
| 2026-04-30 10:57 | 8.72992 | 125.50629 | 27102 ft | 425 kts | 172° |
| 2026-04-30 10:57 | 8.70064 | 125.50925 | 26573 ft | 421 kts | 171° |
| 2026-04-30 10:57 | 8.67149 | 125.51220 | 26040 ft | 418 kts | 171° |
| 2026-04-30 10:57 | 8.64265 | 125.51514 | 25511 ft | 415 kts | 171° |
| 2026-04-30 10:58 | 8.61383 | 125.51807 | 24993 ft | 412 kts | 171° |
| 2026-04-30 10:58 | 8.58542 | 125.52096 | 24470 ft | 409 kts | 171° |
| 2026-04-30 10:58 | 8.55716 | 125.52383 | 23950 ft | 406 kts | 171° |
| 2026-04-30 10:58 | 8.52909 | 125.52668 | 23443 ft | 403 kts | 171° |
| 2026-04-30 10:59 | 8.50120 | 125.52932 | 22939 ft | 401 kts | 171° |
| 2026-04-30 10:59 | 8.47364 | 125.53178 | 22434 ft | 398 kts | 172° |
| 2026-04-30 10:59 | 8.44582 | 125.53423 | 21935 ft | 395 kts | 171° |
| 2026-04-30 10:59 | 8.41876 | 125.53664 | 21458 ft | 393 kts | 171° |
| 2026-04-30 11:00 | 8.39141 | 125.53908 | 20975 ft | 390 kts | 172° |
| 2026-04-30 11:00 | 8.36437 | 125.54150 | 20494 ft | 388 kts | 171° |
| 2026-04-30 11:00 | 8.33765 | 125.54389 | 20025 ft | 385 kts | 172° |
| 2026-04-30 11:00 | 8.31108 | 125.54628 | 19550 ft | 383 kts | 172° |
| 2026-04-30 11:01 | 8.28444 | 125.54866 | 19072 ft | 381 kts | 172° |
| 2026-04-30 11:01 | 8.25818 | 125.55101 | 18605 ft | 378 kts | 171° |
| 2026-04-30 11:01 | 8.24060 | 125.55258 | 18290 ft | 377 kts | 171° |
| 2026-04-30 11:01 | 8.20580 | 125.55571 | 17674 ft | 373 kts | 171° |
| 2026-04-30 11:02 | 8.17990 | 125.55804 | 17213 ft | 371 kts | 172° |
| 2026-04-30 11:02 | 8.15443 | 125.56033 | 16752 ft | 368 kts | 171° |
| 2026-04-30 11:02 | 8.13727 | 125.56187 | 16443 ft | 367 kts | 171° |
| 2026-04-30 11:02 | 8.10348 | 125.56490 | 15848 ft | 363 kts | 171° |
| 2026-04-30 11:03 | 8.07835 | 125.56715 | 15388 ft | 361 kts | 171° |
| 2026-04-30 11:03 | 8.05344 | 125.56938 | 14937 ft | 359 kts | 171° |
| 2026-04-30 11:03 | 8.02855 | 125.57162 | 14475 ft | 357 kts | 171° |
| 2026-04-30 11:04 | 7.97912 | 125.57455 | 13563 ft | 356 kts | 179° |
| 2026-04-30 11:04 | 7.96236 | 125.57317 | 13266 ft | 355 kts | 184° |
| 2026-04-30 11:04 | 7.93036 | 125.56623 | 12938 ft | 356 kts | 192° |
| 2026-04-30 11:04 | 7.90631 | 125.55924 | 12701 ft | 355 kts | 193° |
| 2026-04-30 11:05 | 7.88250 | 125.55210 | 12467 ft | 354 kts | 193° |
| 2026-04-30 11:05 | 7.86680 | 125.54739 | 12314 ft | 353 kts | 193° |
| 2026-04-30 11:05 | 7.83544 | 125.53805 | 12005 ft | 351 kts | 193° |
| 2026-04-30 11:05 | 7.81176 | 125.53106 | 11767 ft | 349 kts | 193° |
| 2026-04-30 11:06 | 7.78853 | 125.52421 | 11518 ft | 348 kts | 193° |
| 2026-04-30 11:06 | 7.76535 | 125.51738 | 11282 ft | 347 kts | 193° |
| 2026-04-30 11:06 | 7.74194 | 125.51052 | 11045 ft | 346 kts | 193° |
| 2026-04-30 11:06 | 7.71894 | 125.50375 | 10810 ft | 345 kts | 193° |
| 2026-04-30 11:07 | 7.69593 | 125.49699 | 10549 ft | 340 kts | 193° |
| 2026-04-30 11:07 | 7.67330 | 125.49033 | 10247 ft | 333 kts | 193° |
| 2026-04-30 11:07 | 7.65127 | 125.48386 | 9988 ft | 325 kts | 193° |
| 2026-04-30 11:07 | 7.62986 | 125.47757 | 9828 ft | 314 kts | 193° |
| 2026-04-30 11:08 | 7.60943 | 125.47156 | 9707 ft | 302 kts | 193° |
| 2026-04-30 11:08 | 7.58919 | 125.46564 | 9585 ft | 301 kts | 193° |
| 2026-04-30 11:08 | 7.56884 | 125.45971 | 9468 ft | 300 kts | 193° |
| 2026-04-30 11:08 | 7.54880 | 125.45386 | 9349 ft | 299 kts | 193° |
| 2026-04-30 11:09 | 7.52868 | 125.44798 | 9228 ft | 299 kts | 193° |
| 2026-04-30 11:09 | 7.50869 | 125.44213 | 9109 ft | 299 kts | 193° |
| 2026-04-30 11:09 | 7.48877 | 125.43630 | 8987 ft | 298 kts | 193° |
| 2026-04-30 11:09 | 7.46861 | 125.43040 | 8870 ft | 298 kts | 194° |
| 2026-04-30 11:10 | 7.44858 | 125.42453 | 8752 ft | 298 kts | 194° |
| 2026-04-30 11:10 | 7.42885 | 125.41876 | 8635 ft | 297 kts | 194° |
| 2026-04-30 11:10 | 7.40893 | 125.41292 | 8518 ft | 297 kts | 194° |
| 2026-04-30 11:10 | 7.38895 | 125.40707 | 8401 ft | 296 kts | 193° |
| 2026-04-30 11:11 | 7.36916 | 125.40128 | 8284 ft | 296 kts | 194° |
| 2026-04-30 11:11 | 7.34915 | 125.39615 | 8153 ft | 294 kts | 185° |
| 2026-04-30 11:11 | 7.32874 | 125.39587 | 8010 ft | 290 kts | 169° |
| 2026-04-30 11:11 | 7.30889 | 125.39957 | 7846 ft | 288 kts | 165° |
| 2026-04-30 11:12 | 7.28941 | 125.40393 | 7659 ft | 288 kts | 165° |
| 2026-04-30 11:12 | 7.26971 | 125.40836 | 7388 ft | 287 kts | 165° |
| 2026-04-30 11:12 | 7.25036 | 125.41260 | 7073 ft | 285 kts | 165° |
| 2026-04-30 11:12 | 7.23078 | 125.41682 | 6734 ft | 284 kts | 166° |
| 2026-04-30 11:13 | 7.21138 | 125.42094 | 6396 ft | 282 kts | 166° |
| 2026-04-30 11:13 | 7.19215 | 125.42502 | 6043 ft | 280 kts | 166° |
| 2026-04-30 11:13 | 7.17318 | 125.42902 | 5693 ft | 279 kts | 166° |
| 2026-04-30 11:13 | 7.15414 | 125.43304 | 5336 ft | 278 kts | 166° |
| 2026-04-30 11:14 | 7.13530 | 125.43702 | 4987 ft | 276 kts | 166° |
| 2026-04-30 11:14 | 7.11625 | 125.44103 | 4636 ft | 275 kts | 167° |
| 2026-04-30 11:14 | 7.09775 | 125.44493 | 4301 ft | 274 kts | 167° |
| 2026-04-30 11:14 | 7.07903 | 125.44900 | 3995 ft | 270 kts | 163° |
| 2026-04-30 11:15 | 7.06233 | 125.45643 | 3899 ft | 255 kts | 144° |
| 2026-04-30 11:15 | 7.04872 | 125.46722 | 3797 ft | 243 kts | 137° |
| 2026-04-30 11:15 | 7.03613 | 125.47829 | 3668 ft | 234 kts | 137° |
| 2026-04-30 11:15 | 7.02416 | 125.48891 | 3529 ft | 226 kts | 137° |
| 2026-04-30 11:16 | 7.01288 | 125.50011 | 3341 ft | 225 kts | 121° |
| 2026-04-30 11:16 | 7.00925 | 125.51493 | 3125 ft | 221 kts | 78° |
| 2026-04-30 11:16 | 7.01635 | 125.52820 | 3000 ft | 218 kts | 43° |
| 2026-04-30 11:16 | 7.02749 | 125.53773 | 2899 ft | 200 kts | 39° |
| 2026-04-30 11:17 | 7.03766 | 125.54679 | 2515 ft | 193 kts | 43° |
| 2026-04-30 11:17 | 7.04699 | 125.55603 | 2244 ft | 180 kts | 45° |
| 2026-04-30 11:17 | 7.05517 | 125.56474 | 1979 ft | 166 kts | 46° |
| 2026-04-30 11:17 | 7.06265 | 125.57304 | 1736 ft | 150 kts | 47° |
| 2026-04-30 11:18 | 7.06947 | 125.58076 | 1553 ft | 146 kts | 48° |
| 2026-04-30 11:18 | 7.08295 | 125.59624 | 1181 ft | 145 kts | 48° |
| 2026-04-30 11:18 | 7.08960 | 125.60394 | 993 ft | 145 kts | 48° |
| 2026-04-30 11:19 | 7.09628 | 125.61167 | 801 ft | 144 kts | 48° |
| 2026-04-30 11:19 | 7.10283 | 125.61927 | 609 ft | 144 kts | 48° |
| 2026-04-30 11:19 | 7.10729 | 125.62446 | 479 ft | 144 kts | 48° |
| 2026-04-30 11:19 | 7.11603 | 125.63473 | 188 ft | 144 kts | 47° |
| 2026-04-30 11:20 | 7.12247 | 125.64226 | 115 ft | 131 kts | 48° |
| 2026-04-30 11:20 | 7.12750 | 125.64809 | 114 ft | 85 kts | 49° |
| 2026-04-30 11:20 | 7.13016 | 125.65118 | 114 ft | 14 kts | 49° |
| 2026-04-30 11:20 | 7.13090 | 125.65190 | 114 ft | 14 kts | 41° |
| 2026-04-30 11:21 | 7.13131 | 125.65235 | 114 ft | 1 kts | 90° |
| 2026-04-30 11:21 | 7.13123 | 125.65237 | 114 ft | 1 kts | 202° |
| 2026-04-30 11:21 | 7.13104 | 125.65221 | 114 ft | 5 kts | 226° |
| 2026-04-30 11:21 | 7.13078 | 125.65192 | 114 ft | 5 kts | 229° |
| 2026-04-30 11:22 | 7.13066 | 125.65178 | 114 ft | 1 kts | 229° |
| 2026-04-30 11:22 | 7.13047 | 125.65155 | 114 ft | 14 kts | 230° |
| 2026-04-30 11:22 | 7.12988 | 125.65086 | 114 ft | 12 kts | 230° |
| 2026-04-30 11:22 | 7.12929 | 125.65018 | 114 ft | 13 kts | 229° |
| 2026-04-30 11:23 | 7.12889 | 125.64921 | 114 ft | 11 kts | 292° |
| 2026-04-30 11:23 | 7.12942 | 125.64868 | 114 ft | 10 kts | 318° |
| 2026-04-30 11:23 | 7.13005 | 125.64762 | 114 ft | 7 kts | 242° |
| 2026-04-30 11:24 | 7.12976 | 125.64726 | 114 ft | 4 kts | 239° |
| 2026-04-30 11:24 | 7.12983 | 125.64698 | 114 ft | 4 kts | 311° |
| 2026-04-30 11:24 | 7.13005 | 125.64676 | 114 ft | 4 kts | 317° |
| 2026-04-30 11:25 | 7.13032 | 125.64653 | 114 ft | 0 kts | 319° |